createdAt,value
2022-11-30T00:01:46.488Z,40.85
2022-11-30T00:04:48.139Z,42.13
2022-11-30T00:07:50.473Z,41.00
2022-11-30T00:10:51.865Z,40.08
2022-11-30T00:13:53.360Z,39.17
2022-11-30T00:16:54.722Z,41.85
2022-11-30T00:19:56.097Z,40.03
2022-11-30T00:22:57.777Z,39.72
2022-11-30T00:26:03.210Z,39.05
2022-11-30T00:29:04.594Z,41.85
2022-11-30T00:32:05.933Z,41.42
2022-11-30T00:35:07.510Z,40.47
2022-11-30T00:38:08.829Z,38.13
2022-11-30T00:41:10.974Z,41.58
2022-11-30T00:44:12.327Z,40.95
2022-11-30T00:47:13.673Z,40.63
2022-11-30T00:50:15.038Z,39.38
2022-11-30T00:53:17.343Z,38.15
2022-11-30T00:56:18.747Z,40.58
2022-11-30T00:59:20.094Z,40.05
2022-11-30T01:02:21.517Z,39.35
2022-11-30T01:05:22.977Z,39.47
2022-11-30T01:08:24.363Z,39.30
2022-11-30T01:11:27.883Z,40.83
2022-11-30T01:14:29.281Z,39.28
2022-11-30T01:17:30.627Z,38.15
2022-11-30T01:20:32.128Z,39.22
2022-11-30T01:23:33.475Z,40.03
2022-11-30T01:26:34.827Z,38.35
2022-11-30T01:29:36.148Z,38.53
2022-11-30T01:32:37.481Z,40.53
2022-11-30T01:35:38.804Z,37.78
2022-11-30T01:38:42.719Z,36.95
2022-11-30T01:41:44.149Z,38.08
2022-11-30T01:44:51.214Z,39.22
2022-11-30T01:47:56.936Z,38.33
2022-11-30T01:50:58.634Z,37.78
2022-11-30T01:54:01.317Z,38.58
2022-11-30T01:57:10.761Z,39.13
2022-11-30T02:00:14.513Z,38.22
2022-11-30T02:03:30.141Z,38.58
2022-11-30T02:06:31.873Z,38.00
2022-11-30T02:09:41.765Z,38.20
2022-11-30T02:12:52.054Z,39.67
2022-11-30T02:16:12.302Z,40.53
2022-11-30T02:19:29.707Z,39.38
2022-11-30T02:22:53.590Z,38.30
2022-11-30T02:26:13.702Z,38.53
2022-11-30T02:29:38.231Z,35.40
2022-11-30T02:32:46.254Z,36.22
2022-11-30T02:35:54.826Z,36.72
2022-11-30T02:38:57.730Z,39.42
2022-11-30T02:41:59.076Z,37.10
2022-11-30T02:45:00.526Z,38.85
2022-11-30T02:48:08.903Z,38.83
2022-11-30T02:51:14.335Z,38.10
2022-11-30T02:54:17.387Z,41.53
2022-11-30T02:57:18.747Z,40.00
2022-11-30T03:00:20.196Z,40.90
2022-11-30T03:03:21.519Z,38.38
2022-11-30T03:06:22.899Z,41.15
2022-11-30T03:09:24.325Z,38.65
2022-11-30T03:12:26.665Z,39.10
2022-11-30T03:15:28.094Z,38.45
2022-11-30T03:18:31.568Z,39.42
2022-11-30T03:21:32.929Z,40.05
2022-11-30T03:24:34.345Z,41.33
2022-11-30T03:27:35.697Z,38.03
2022-11-30T03:30:37.138Z,39.55
2022-11-30T03:33:41.138Z,38.85
2022-11-30T03:36:42.594Z,39.63
2022-11-30T03:39:44.063Z,39.72
2022-11-30T03:42:45.496Z,40.67
2022-11-30T03:45:46.834Z,40.35
2022-11-30T03:48:48.208Z,39.65
2022-11-30T03:51:49.590Z,40.05
2022-11-30T03:54:50.919Z,38.55
2022-11-30T03:57:52.278Z,40.50
2022-11-30T04:01:04.543Z,40.55
2022-11-30T04:04:05.887Z,38.88
2022-11-30T04:07:07.216Z,40.10
2022-11-30T04:10:09.431Z,39.55
2022-11-30T04:13:10.783Z,39.95
2022-11-30T04:16:12.442Z,40.95
2022-11-30T04:19:13.810Z,40.45
2022-11-30T04:22:15.203Z,39.42
2022-11-30T04:25:16.559Z,39.15
2022-11-30T04:28:18.812Z,42.20
2022-11-30T04:31:20.173Z,39.80
2022-11-30T04:34:21.539Z,41.30
2022-11-30T04:37:22.863Z,41.72
2022-11-30T04:40:24.252Z,43.72
2022-11-30T04:43:25.951Z,41.92
2022-11-30T04:46:27.379Z,42.05
2022-11-30T04:49:28.733Z,41.47
2022-11-30T04:52:30.179Z,42.38
2022-11-30T04:55:32.005Z,43.30
2022-11-30T04:58:33.530Z,42.50
2022-11-30T05:01:34.867Z,41.65
2022-11-30T05:04:36.344Z,42.72
2022-11-30T05:07:38.290Z,41.28
2022-11-30T05:10:39.689Z,43.03
2022-11-30T05:13:41.042Z,43.40
2022-11-30T05:16:42.380Z,43.75
2022-11-30T05:19:43.762Z,41.28
2022-11-30T05:22:45.092Z,44.72
2022-11-30T05:25:47.153Z,44.80
2022-11-30T05:28:48.568Z,42.67
2022-11-30T05:31:50.002Z,44.97
2022-11-30T05:34:52.063Z,43.20
2022-11-30T05:37:53.611Z,43.10
2022-11-30T05:41:01.869Z,44.95
2022-11-30T05:44:03.638Z,41.40
2022-11-30T05:47:05.147Z,43.10
2022-11-30T05:50:07.250Z,46.83
2022-11-30T05:53:08.567Z,42.70
2022-11-30T05:56:12.954Z,43.72
2022-11-30T05:59:14.267Z,44.67
2022-11-30T06:02:15.678Z,43.08
2022-11-30T06:05:17.162Z,42.08
2022-11-30T06:08:19.320Z,43.33
2022-11-30T06:11:20.676Z,43.00
2022-11-30T06:14:21.995Z,44.88
2022-11-30T06:17:23.482Z,42.03
2022-11-30T06:20:24.821Z,45.40
2022-11-30T06:23:26.207Z,43.47
2022-11-30T06:26:27.575Z,43.92
2022-11-30T06:29:28.912Z,44.45
2022-11-30T06:32:30.223Z,43.67
2022-11-30T06:35:31.755Z,42.83
2022-11-30T06:38:33.133Z,40.92
2022-11-30T06:41:34.906Z,42.10
2022-11-30T06:44:36.252Z,42.83
2022-11-30T06:47:37.600Z,43.42
2022-11-30T06:50:39.634Z,44.40
2022-11-30T06:53:43.001Z,42.70
2022-11-30T06:59:45.581Z,44.45
2022-11-30T07:02:46.918Z,42.70
2022-11-30T07:05:48.249Z,41.00
2022-11-30T07:08:49.577Z,42.03
2022-11-30T07:11:50.979Z,45.35
2022-11-30T07:14:52.663Z,41.88
2022-11-30T07:17:54.029Z,42.47
2022-11-30T07:21:02.256Z,42.60
2022-11-30T07:24:03.861Z,42.67
2022-11-30T07:27:05.319Z,42.97
2022-11-30T07:30:07.590Z,43.47
2022-11-30T07:33:08.943Z,44.72
2022-11-30T07:36:10.979Z,41.40
2022-11-30T07:39:13.115Z,42.50
2022-11-30T07:42:14.443Z,44.33
2022-11-30T07:45:16.944Z,43.90
2022-11-30T07:48:18.735Z,43.28
2022-11-30T07:51:21.894Z,45.20
2022-11-30T07:54:23.283Z,43.97
2022-11-30T07:57:24.598Z,42.10
2022-11-30T08:00:25.960Z,41.83
2022-11-30T08:03:28.573Z,44.75
2022-11-30T08:06:32.543Z,44.45
2022-11-30T08:09:33.868Z,42.17
2022-11-30T08:12:35.207Z,43.85
2022-11-30T08:15:36.973Z,38.97
2022-11-30T08:18:39.260Z,42.00
2022-11-30T08:21:40.632Z,42.42
2022-11-30T08:24:42.013Z,43.30
2022-11-30T08:27:43.332Z,40.20
2022-11-30T08:30:44.811Z,42.75
2022-11-30T08:33:46.541Z,40.60
2022-11-30T08:36:51.719Z,40.45
2022-11-30T08:39:53.344Z,45.75
2022-11-30T08:42:54.662Z,41.70
2022-11-30T08:45:57.427Z,42.92
2022-11-30T08:49:19.854Z,43.30
2022-11-30T08:52:20.213Z,41.72
2022-11-30T08:55:21.675Z,40.53
2022-11-30T08:58:23.032Z,39.88
2022-11-30T09:01:28.470Z,38.88
2022-11-30T09:04:32.867Z,41.58
2022-11-30T09:07:34.251Z,40.53
2022-11-30T09:10:35.652Z,39.70
2022-11-30T09:13:37.132Z,40.53
2022-11-30T09:16:38.450Z,40.08
2022-11-30T09:19:40.023Z,39.22
2022-11-30T09:22:41.407Z,38.95
2022-11-30T09:25:42.745Z,39.38
2022-11-30T09:28:46.136Z,37.50
2022-11-30T09:34:50.760Z,38.35
2022-11-30T09:37:53.180Z,39.55
2022-11-30T09:41:00.567Z,38.72
2022-11-30T09:44:18.612Z,37.10
2022-11-30T09:47:44.850Z,36.60
2022-11-30T09:50:48.269Z,36.90
2022-11-30T09:56:54.249Z,35.17
2022-11-30T09:59:58.442Z,34.35
2022-11-30T10:03:03.991Z,35.47
2022-11-30T10:06:14.662Z,36.40
2022-11-30T10:09:34.371Z,34.22
2022-11-30T10:12:42.151Z,33.88
2022-11-30T10:15:49.242Z,34.75
2022-11-30T10:19:16.614Z,34.65
2022-11-30T10:22:29.096Z,35.20
2022-11-30T10:25:48.654Z,33.72
2022-11-30T10:28:52.295Z,32.17
2022-11-30T10:31:58.711Z,35.38
2022-11-30T10:35:19.579Z,32.22
2022-11-30T10:38:29.015Z,33.33
2022-11-30T10:41:46.134Z,32.20
2022-11-30T10:45:03.743Z,31.02
2022-11-30T10:48:13.581Z,30.90
2022-11-30T10:51:15.115Z,31.13
2022-11-30T10:54:19.883Z,32.95
2022-11-30T10:57:24.863Z,31.98
2022-11-30T11:00:26.203Z,29.70
2022-11-30T11:03:27.857Z,30.20
2022-11-30T11:06:29.260Z,30.10
2022-11-30T11:09:39.918Z,29.42
2022-11-30T11:12:48.261Z,31.50
2022-11-30T11:15:58.656Z,28.88
2022-11-30T11:19:00.098Z,30.00
2022-11-30T11:22:15.033Z,28.88
2022-11-30T11:25:22.544Z,28.33
2022-11-30T11:28:24.954Z,29.58
2022-11-30T11:31:43.981Z,27.92
2022-11-30T11:34:50.905Z,30.75
2022-11-30T11:37:52.713Z,30.85
2022-11-30T11:41:06.868Z,31.13
2022-11-30T11:44:10.973Z,30.35
2022-11-30T11:47:23.814Z,28.77
2022-11-30T11:51:04.974Z,29.63
2022-11-30T11:54:15.774Z,29.05
2022-11-30T11:57:21.021Z,27.75
2022-11-30T12:00:23.434Z,32.38
2022-11-30T12:03:43.742Z,35.22
2022-11-30T12:06:46.306Z,34.10
2022-11-30T12:10:00.211Z,33.07
2022-11-30T12:13:01.663Z,34.45
2022-11-30T12:16:18.955Z,34.85
2022-11-30T12:19:25.374Z,34.25
2022-11-30T12:23:06.961Z,33.80
2022-11-30T12:26:24.735Z,33.08
2022-11-30T12:29:40.719Z,31.38
2022-11-30T12:33:14.668Z,33.97
2022-11-30T12:36:49.950Z,32.85
2022-11-30T12:40:02.667Z,33.92
2022-11-30T12:43:24.981Z,31.53
2022-11-30T12:46:39.196Z,30.55
2022-11-30T12:50:05.327Z,33.28
2022-11-30T12:53:14.477Z,32.28
2022-11-30T12:56:22.417Z,32.38
2022-11-30T12:59:39.401Z,32.90
2022-11-30T13:03:02.212Z,33.13
2022-11-30T13:06:17.103Z,31.10
2022-11-30T13:09:27.708Z,32.92
2022-11-30T13:12:33.989Z,34.25
2022-11-30T13:15:35.765Z,30.48
2022-11-30T13:18:37.376Z,31.85
2022-11-30T13:21:52.290Z,32.90
2022-11-30T13:25:07.334Z,35.92
2022-11-30T13:28:33.260Z,35.22
2022-11-30T13:31:41.446Z,32.75
2022-11-30T13:34:43.126Z,34.65
2022-11-30T13:37:44.462Z,33.78
2022-11-30T13:41:04.298Z,34.78
2022-11-30T13:44:20.538Z,33.88
2022-11-30T13:47:29.759Z,32.75
2022-11-30T13:50:40.637Z,33.22
2022-11-30T13:53:42.077Z,32.38
2022-11-30T13:56:48.588Z,35.33
2022-11-30T13:59:52.466Z,34.13
2022-11-30T14:02:53.863Z,34.83
2022-11-30T14:05:56.935Z,33.22
2022-11-30T14:08:58.270Z,32.92
2022-11-30T14:12:31.506Z,33.63
2022-11-30T14:15:38.688Z,32.30
2022-11-30T14:18:42.584Z,32.67
2022-11-30T14:21:44.473Z,32.47
2022-11-30T14:24:48.431Z,31.30
2022-11-30T14:27:55.463Z,30.83
2022-11-30T14:30:57.179Z,31.15
2022-11-30T14:34:06.287Z,30.75
2022-11-30T14:37:27.591Z,32.65
2022-11-30T14:40:30.357Z,29.77
2022-11-30T14:43:31.721Z,29.73
2022-11-30T14:46:33.974Z,30.35
2022-11-30T14:49:35.381Z,30.60
2022-11-30T14:52:45.621Z,31.70
2022-11-30T14:55:52.396Z,29.85
2022-11-30T14:59:24.189Z,29.42
2022-11-30T15:02:32.584Z,28.25
2022-11-30T15:05:34.093Z,27.23
2022-11-30T15:08:42.524Z,29.13
2022-11-30T15:11:46.849Z,29.98
2022-11-30T15:15:27.489Z,31.77
2022-11-30T15:18:28.825Z,31.52
2022-11-30T15:21:32.146Z,30.45
2022-11-30T15:24:33.501Z,32.05
2022-11-30T15:27:34.986Z,31.00
2022-11-30T15:30:40.645Z,31.92
2022-11-30T15:33:45.178Z,31.08
2022-11-30T15:36:47.342Z,31.48
2022-11-30T15:39:53.857Z,32.88
2022-11-30T15:42:55.458Z,32.15
2022-11-30T15:45:58.792Z,31.13
2022-11-30T15:52:08.717Z,32.55
2022-11-30T15:55:46.311Z,31.33
2022-11-30T15:59:22.179Z,32.92
2022-11-30T16:02:26.952Z,32.60
2022-11-30T16:05:28.327Z,32.50
2022-11-30T16:08:29.731Z,32.83
2022-11-30T16:11:33.176Z,33.33
2022-11-30T16:17:35.751Z,33.13
2022-11-30T16:20:37.167Z,33.53
2022-11-30T16:23:38.848Z,34.13
2022-11-30T16:26:50.914Z,32.65
2022-11-30T16:29:53.156Z,34.73
2022-11-30T16:32:54.681Z,31.52
2022-11-30T16:36:01.863Z,32.65
2022-11-30T16:39:03.417Z,31.35
2022-11-30T16:42:04.802Z,33.22
2022-11-30T16:45:14.286Z,32.63
2022-11-30T16:48:15.674Z,33.97
2022-11-30T16:51:20.498Z,34.08
2022-11-30T16:54:21.831Z,34.67
2022-11-30T16:57:23.153Z,35.58
2022-11-30T17:00:24.724Z,35.80
2022-11-30T17:03:29.922Z,36.17
2022-11-30T17:06:31.287Z,37.00
2022-11-30T17:09:32.607Z,37.58
2022-11-30T17:12:34.243Z,37.53
2022-11-30T17:15:35.586Z,36.25
2022-11-30T17:18:36.944Z,38.25
2022-11-30T17:21:39.127Z,37.55
2022-11-30T17:24:40.467Z,39.65
2022-11-30T17:27:41.860Z,37.13
2022-11-30T17:30:43.334Z,39.00
2022-11-30T17:33:48.114Z,38.97
2022-11-30T17:36:49.961Z,37.42
2022-11-30T17:39:51.292Z,39.25
2022-11-30T17:42:52.669Z,41.72
2022-11-30T17:45:54.061Z,41.38
2022-11-30T17:48:55.496Z,39.90
2022-11-30T17:51:56.834Z,42.80
2022-11-30T17:54:58.377Z,41.38
2022-11-30T17:57:59.808Z,43.35
2022-11-30T18:01:01.219Z,43.13
2022-11-30T18:04:02.566Z,43.70
2022-11-30T18:07:04.128Z,41.28
2022-11-30T18:10:06.093Z,42.63
2022-11-30T18:13:10.209Z,41.78
2022-11-30T18:16:17.142Z,41.05
2022-11-30T18:19:18.554Z,42.38
2022-11-30T18:22:20.010Z,42.13
2022-11-30T18:25:21.351Z,42.38
2022-11-30T18:28:22.689Z,41.13
2022-11-30T18:31:25.239Z,41.22
2022-11-30T18:34:26.691Z,41.77
2022-11-30T18:37:28.260Z,41.05
2022-11-30T18:40:29.666Z,42.35
2022-11-30T18:43:31.023Z,39.92
2022-11-30T18:46:32.477Z,39.83
2022-11-30T18:49:34.783Z,39.97
2022-11-30T18:52:36.147Z,41.90
2022-11-30T18:55:37.519Z,40.17
2022-11-30T18:58:39.567Z,38.85
2022-11-30T19:01:41.456Z,40.75
2022-11-30T19:04:42.879Z,39.42
2022-11-30T19:07:44.220Z,41.65
2022-11-30T19:10:45.592Z,40.58
2022-11-30T19:13:46.940Z,42.63
2022-11-30T19:16:48.373Z,39.75
2022-11-30T19:19:49.752Z,40.55
2022-11-30T19:22:51.170Z,39.97
2022-11-30T19:25:52.634Z,40.85
2022-11-30T19:28:55.112Z,41.53
2022-11-30T19:31:56.494Z,38.07
2022-11-30T19:34:57.846Z,40.22
2022-11-30T19:37:59.310Z,39.28
2022-11-30T19:41:06.350Z,40.30
2022-11-30T19:44:13.285Z,49.97
2022-11-30T19:47:14.646Z,52.35
2022-11-30T19:50:16.099Z,48.42
2022-11-30T19:53:17.452Z,41.95
2022-11-30T19:56:18.782Z,43.90
2022-11-30T19:59:20.514Z,40.58
2022-11-30T20:02:21.975Z,38.55
2022-11-30T20:05:23.387Z,41.10
2022-11-30T20:08:24.723Z,41.05
2022-11-30T20:11:26.171Z,42.97
2022-11-30T20:14:27.491Z,42.92
2022-11-30T20:17:28.855Z,44.35
2022-11-30T20:20:30.203Z,42.58
2022-11-30T20:23:34.488Z,46.67
2022-11-30T20:26:38.983Z,43.55
2022-11-30T20:29:40.340Z,43.30
2022-11-30T20:32:41.969Z,43.88
2022-11-30T20:35:43.329Z,45.35
2022-11-30T20:38:44.961Z,45.42
2022-11-30T20:41:46.304Z,46.22
2022-11-30T20:44:47.920Z,47.05
2022-11-30T20:47:49.493Z,48.53
2022-11-30T20:51:14.189Z,48.67
2022-11-30T20:54:12.736Z,51.58
2022-11-30T20:57:14.069Z,48.15
2022-11-30T21:00:15.600Z,51.40
2022-11-30T21:03:17.011Z,51.05
2022-11-30T21:06:18.505Z,53.42
2022-11-30T21:09:20.253Z,52.13
2022-11-30T21:12:21.608Z,54.55
2022-11-30T21:15:22.932Z,52.72
2022-11-30T21:18:24.971Z,55.67
2022-11-30T21:21:29.599Z,52.08
2022-11-30T21:24:30.989Z,53.55
2022-11-30T21:27:32.351Z,55.20
2022-11-30T21:30:33.778Z,51.97
2022-11-30T21:33:35.106Z,57.05
2022-11-30T21:36:36.499Z,52.88
2022-11-30T21:39:37.844Z,52.80
2022-11-30T21:42:39.211Z,53.22
2022-11-30T21:45:40.530Z,51.90
2022-11-30T21:48:43.841Z,52.28
2022-11-30T21:51:45.168Z,53.95
2022-11-30T21:54:47.328Z,54.60
2022-11-30T21:57:53.660Z,51.40
2022-11-30T22:00:56.352Z,53.50
2022-11-30T22:03:59.138Z,54.00
2022-11-30T22:07:00.671Z,52.22
2022-11-30T22:10:02.012Z,52.65
2022-11-30T22:13:03.347Z,50.58
2022-11-30T22:16:10.197Z,49.85
2022-11-30T22:19:11.708Z,51.58
2022-11-30T22:22:13.074Z,50.80
2022-11-30T22:25:14.500Z,49.30
2022-11-30T22:28:15.834Z,49.22
2022-11-30T22:31:19.585Z,47.83
2022-11-30T22:34:21.301Z,48.38
2022-11-30T22:37:22.630Z,48.78
2022-11-30T22:40:23.977Z,48.65
2022-11-30T22:43:25.305Z,50.97
2022-11-30T22:46:32.404Z,48.15
2022-11-30T22:49:33.904Z,50.80
2022-11-30T22:53:01.645Z,47.67
2022-11-30T22:56:04.517Z,49.58
2022-11-30T22:59:05.983Z,51.13
2022-11-30T23:02:07.346Z,49.85
2022-11-30T23:05:08.895Z,51.72
2022-11-30T23:08:10.270Z,50.80
2022-11-30T23:11:14.333Z,48.20
2022-11-30T23:14:15.774Z,49.08
2022-11-30T23:17:17.107Z,51.38
2022-11-30T23:20:18.487Z,48.28
2022-11-30T23:23:19.836Z,51.88
2022-11-30T23:26:26.187Z,50.33
2022-11-30T23:29:27.507Z,51.35
2022-11-30T23:32:28.872Z,49.58
2022-11-30T23:35:30.285Z,50.60
2022-11-30T23:38:31.807Z,50.25
2022-11-30T23:41:33.197Z,49.22
2022-11-30T23:44:34.540Z,49.72
2022-11-30T23:47:35.873Z,51.58
2022-11-30T23:50:37.202Z,49.78
2022-11-30T23:53:38.582Z,50.55
2022-11-30T23:56:39.965Z,49.95
2022-11-30T23:59:41.413Z,50.13
